sensor_id;sensor_type;location;lat;lon;timestamp;pressure;altitude;pressure_sealevel;temperature;humidity
32873;BME280;19224;52.462;16.898;2023-07-16T00:01:30;99639.91;;;27.07;43.35
32873;BME280;19224;52.462;16.898;2023-07-16T00:04:00;99636.48;;;27.05;43.36
32873;BME280;19224;52.462;16.898;2023-07-16T00:06:31;99639.66;;;26.98;43.28
32873;BME280;19224;52.462;16.898;2023-07-16T00:09:04;99618.20;;;26.85;43.43
32873;BME280;19224;52.462;16.898;2023-07-16T00:11:34;99638.66;;;26.95;43.71
32873;BME280;19224;52.462;16.898;2023-07-16T00:14:13;99631.75;;;26.95;43.80
32873;BME280;19224;52.462;16.898;2023-07-16T00:16:39;99631.47;;;26.90;43.92
32873;BME280;19224;52.462;16.898;2023-07-16T00:19:12;99634.89;;;26.92;43.53
32873;BME280;19224;52.462;16.898;2023-07-16T00:21:42;99627.34;;;26.86;43.31
32873;BME280;19224;52.462;16.898;2023-07-16T00:24:13;99624.02;;;26.90;43.49
32873;BME280;19224;52.462;16.898;2023-07-16T00:26:43;99613.29;;;26.91;43.50
32873;BME280;19224;52.462;16.898;2023-07-16T00:29:14;99608.53;;;26.85;44.13
32873;BME280;19224;52.462;16.898;2023-07-16T00:31:44;99606.81;;;26.84;43.97
32873;BME280;19224;52.462;16.898;2023-07-16T00:34:26;99601.08;;;26.86;44.00
32873;BME280;19224;52.462;16.898;2023-07-16T00:36:55;99589.26;;;26.77;44.39
32873;BME280;19224;52.462;16.898;2023-07-16T00:39:30;99586.98;;;26.81;44.38
32873;BME280;19224;52.462;16.898;2023-07-16T00:42:12;99595.94;;;26.83;44.55
32873;BME280;19224;52.462;16.898;2023-07-16T00:44:38;99601.85;;;26.80;44.80
32873;BME280;19224;52.462;16.898;2023-07-16T00:47:10;99593.25;;;26.75;44.99
32873;BME280;19224;52.462;16.898;2023-07-16T00:49:44;99596.91;;;26.71;45.15
32873;BME280;19224;52.462;16.898;2023-07-16T00:52:18;99587.05;;;26.73;45.27
32873;BME280;19224;52.462;16.898;2023-07-16T00:54:49;99586.21;;;26.72;45.55
32873;BME280;19224;52.462;16.898;2023-07-16T00:57:27;99582.80;;;26.66;45.91
32873;BME280;19224;52.462;16.898;2023-07-16T01:00:08;99585.46;;;26.60;46.26
32873;BME280;19224;52.462;16.898;2023-07-16T01:02:39;99589.61;;;26.60;46.42
32873;BME280;19224;52.462;16.898;2023-07-16T01:05:10;99588.51;;;26.65;46.31
32873;BME280;19224;52.462;16.898;2023-07-16T01:07:49;99593.37;;;26.63;46.52
32873;BME280;19224;52.462;16.898;2023-07-16T01:10:18;99593.59;;;26.57;46.96
32873;BME280;19224;52.462;16.898;2023-07-16T01:12:51;99589.98;;;26.57;47.20
32873;BME280;19224;52.462;16.898;2023-07-16T01:15:26;99597.45;;;26.52;47.72
32873;BME280;19224;52.462;16.898;2023-07-16T01:17:58;99600.50;;;26.57;47.56
32873;BME280;19224;52.462;16.898;2023-07-16T01:20:29;99602.59;;;26.55;47.96
32873;BME280;19224;52.462;16.898;2023-07-16T01:26:36;99611.71;;;26.60;48.47
32873;BME280;19224;52.462;16.898;2023-07-16T01:32:05;99609.00;;;26.56;48.57
32873;BME280;19224;52.462;16.898;2023-07-16T01:34:43;99600.39;;;26.51;49.12
32873;BME280;19224;52.462;16.898;2023-07-16T01:37:14;99607.66;;;26.44;49.57
32873;BME280;19224;52.462;16.898;2023-07-16T01:39:47;99598.91;;;26.40;49.77
32873;BME280;19224;52.462;16.898;2023-07-16T01:42:17;99599.09;;;26.39;50.14
32873;BME280;19224;52.462;16.898;2023-07-16T01:44:50;99603.56;;;26.40;50.25
32873;BME280;19224;52.462;16.898;2023-07-16T01:50:10;99591.13;;;26.40;50.27
32873;BME280;19224;52.462;16.898;2023-07-16T01:52:40;99595.70;;;26.33;50.75
32873;BME280;19224;52.462;16.898;2023-07-16T01:55:10;99597.54;;;26.36;51.07
32873;BME280;19224;52.462;16.898;2023-07-16T01:57:42;99594.94;;;26.39;50.95
32873;BME280;19224;52.462;16.898;2023-07-16T02:00:14;99585.09;;;26.40;51.33
32873;BME280;19224;52.462;16.898;2023-07-16T02:02:44;99573.22;;;26.36;51.58
32873;BME280;19224;52.462;16.898;2023-07-16T02:05:15;99565.60;;;26.38;51.58
32873;BME280;19224;52.462;16.898;2023-07-16T02:07:56;99561.41;;;26.42;51.90
32873;BME280;19224;52.462;16.898;2023-07-16T02:10:27;99565.33;;;26.47;51.99
32873;BME280;19224;52.462;16.898;2023-07-16T02:13:01;99568.66;;;26.43;52.51
32873;BME280;19224;52.462;16.898;2023-07-16T02:15:32;99575.61;;;26.39;52.99
32873;BME280;19224;52.462;16.898;2023-07-16T02:18:08;99564.73;;;26.37;53.58
32873;BME280;19224;52.462;16.898;2023-07-16T02:20:38;99551.73;;;26.46;53.58
32873;BME280;19224;52.462;16.898;2023-07-16T02:23:10;99542.04;;;26.50;53.81
32873;BME280;19224;52.462;16.898;2023-07-16T02:25:43;99545.88;;;26.45;54.02
32873;BME280;19224;52.462;16.898;2023-07-16T02:28:17;99551.01;;;26.48;54.20
32873;BME280;19224;52.462;16.898;2023-07-16T02:30:49;99544.66;;;26.43;54.61
32873;BME280;19224;52.462;16.898;2023-07-16T02:33:26;99538.27;;;26.43;55.11
32873;BME280;19224;52.462;16.898;2023-07-16T02:35:57;99542.86;;;26.32;55.89
32873;BME280;19224;52.462;16.898;2023-07-16T02:38:34;99547.36;;;26.33;56.10
32873;BME280;19224;52.462;16.898;2023-07-16T02:41:06;99545.84;;;26.26;56.95
32873;BME280;19224;52.462;16.898;2023-07-16T02:43:37;99555.00;;;26.27;57.08
32873;BME280;19224;52.462;16.898;2023-07-16T02:46:07;99548.14;;;26.23;57.63
32873;BME280;19224;52.462;16.898;2023-07-16T02:48:38;99558.80;;;26.26;57.53
32873;BME280;19224;52.462;16.898;2023-07-16T02:51:13;99567.69;;;26.17;58.08
32873;BME280;19224;52.462;16.898;2023-07-16T02:53:46;99573.77;;;26.09;59.22
32873;BME280;19224;52.462;16.898;2023-07-16T02:56:20;99573.77;;;26.09;59.29
32873;BME280;19224;52.462;16.898;2023-07-16T02:58:51;99579.50;;;26.07;59.64
32873;BME280;19224;52.462;16.898;2023-07-16T03:01:22;99580.00;;;26.11;60.11
32873;BME280;19224;52.462;16.898;2023-07-16T03:03:52;99572.73;;;26.10;60.41
32873;BME280;19224;52.462;16.898;2023-07-16T03:06:23;99577.02;;;26.16;60.65
32873;BME280;19224;52.462;16.898;2023-07-16T03:08:53;99582.77;;;26.07;61.74
32873;BME280;19224;52.462;16.898;2023-07-16T03:11:27;99600.05;;;26.05;62.19
32873;BME280;19224;52.462;16.898;2023-07-16T03:13:58;99605.27;;;26.00;62.93
32873;BME280;19224;52.462;16.898;2023-07-16T03:16:32;99619.08;;;25.96;63.12
32873;BME280;19224;52.462;16.898;2023-07-16T03:19:05;99632.75;;;25.89;63.61
32873;BME280;19224;52.462;16.898;2023-07-16T03:21:35;99638.81;;;25.89;63.59
32873;BME280;19224;52.462;16.898;2023-07-16T03:24:06;99642.91;;;25.85;63.83
32873;BME280;19224;52.462;16.898;2023-07-16T03:26:39;99650.55;;;25.79;64.34
32873;BME280;19224;52.462;16.898;2023-07-16T03:29:09;99648.80;;;25.82;64.39
32873;BME280;19224;52.462;16.898;2023-07-16T03:31:41;99650.89;;;25.76;64.96
32873;BME280;19224;52.462;16.898;2023-07-16T03:34:14;99658.80;;;25.83;64.84
32873;BME280;19224;52.462;16.898;2023-07-16T03:36:50;99657.79;;;25.76;65.81
32873;BME280;19224;52.462;16.898;2023-07-16T03:39:26;99669.16;;;25.77;66.24
32873;BME280;19224;52.462;16.898;2023-07-16T03:41:57;99669.22;;;25.65;67.62
32873;BME280;19224;52.462;16.898;2023-07-16T03:44:30;99675.76;;;25.72;67.38
32873;BME280;19224;52.462;16.898;2023-07-16T03:47:00;99689.92;;;25.65;68.15
32873;BME280;19224;52.462;16.898;2023-07-16T03:49:31;99688.23;;;25.60;68.97
32873;BME280;19224;52.462;16.898;2023-07-16T03:52:04;99693.44;;;25.55;69.61
32873;BME280;19224;52.462;16.898;2023-07-16T03:54:37;99704.65;;;25.45;70.44
32873;BME280;19224;52.462;16.898;2023-07-16T03:57:10;99703.44;;;25.48;70.75
32873;BME280;19224;52.462;16.898;2023-07-16T03:59:42;99710.36;;;25.44;71.46
32873;BME280;19224;52.462;16.898;2023-07-16T04:02:18;99720.00;;;25.40;72.32
32873;BME280;19224;52.462;16.898;2023-07-16T04:04:45;99703.13;;;25.31;73.49
32873;BME280;19224;52.462;16.898;2023-07-16T04:07:15;99719.48;;;25.44;72.85
32873;BME280;19224;52.462;16.898;2023-07-16T04:09:47;99727.41;;;25.51;72.83
32873;BME280;19224;52.462;16.898;2023-07-16T04:12:17;99730.20;;;25.39;72.72
32873;BME280;19224;52.462;16.898;2023-07-16T04:14:48;99727.58;;;25.42;72.91
32873;BME280;19224;52.462;16.898;2023-07-16T04:17:21;99745.00;;;25.42;72.83
32873;BME280;19224;52.462;16.898;2023-07-16T04:19:51;99721.41;;;25.36;72.32
32873;BME280;19224;52.462;16.898;2023-07-16T04:22:24;99743.95;;;25.51;72.13
32873;BME280;19224;52.462;16.898;2023-07-16T04:24:54;99742.36;;;25.61;71.29
32873;BME280;19224;52.462;16.898;2023-07-16T04:27:30;99751.31;;;25.63;70.60
32873;BME280;19224;52.462;16.898;2023-07-16T04:30:10;99753.52;;;25.71;69.98
32873;BME280;19224;52.462;16.898;2023-07-16T04:32:43;99760.94;;;25.75;69.34
32873;BME280;19224;52.462;16.898;2023-07-16T04:35:17;99753.35;;;25.89;68.31
32873;BME280;19224;52.462;16.898;2023-07-16T04:37:51;99773.34;;;25.91;67.71
32873;BME280;19224;52.462;16.898;2023-07-16T04:40:20;99769.86;;;25.97;67.05
32873;BME280;19224;52.462;16.898;2023-07-16T04:42:50;99774.98;;;26.08;66.68
32873;BME280;19224;52.462;16.898;2023-07-16T04:45:20;99775.66;;;26.10;66.75
32873;BME280;19224;52.462;16.898;2023-07-16T04:47:51;99785.53;;;26.08;66.94
32873;BME280;19224;52.462;16.898;2023-07-16T04:50:21;99775.13;;;26.18;66.83
32873;BME280;19224;52.462;16.898;2023-07-16T04:52:54;99775.94;;;26.27;67.31
32873;BME280;19224;52.462;16.898;2023-07-16T04:55:24;99787.69;;;26.25;67.77
32873;BME280;19224;52.462;16.898;2023-07-16T04:57:57;99780.25;;;26.25;68.03
32873;BME280;19224;52.462;16.898;2023-07-16T05:00:27;99782.84;;;26.27;68.41
32873;BME280;19224;52.462;16.898;2023-07-16T05:02:57;99785.23;;;26.34;68.50
32873;BME280;19224;52.462;16.898;2023-07-16T05:05:28;99800.70;;;26.51;68.37
32873;BME280;19224;52.462;16.898;2023-07-16T05:07:59;99810.91;;;26.42;69.00
32873;BME280;19224;52.462;16.898;2023-07-16T05:10:33;99818.52;;;26.40;69.41
32873;BME280;19224;52.462;16.898;2023-07-16T05:13:04;99823.14;;;26.44;69.68
32873;BME280;19224;52.462;16.898;2023-07-16T05:15:37;99824.48;;;26.60;69.32
32873;BME280;19224;52.462;16.898;2023-07-16T05:18:07;99843.66;;;26.61;69.38
32873;BME280;19224;52.462;16.898;2023-07-16T05:20:38;99849.48;;;26.66;69.61
32873;BME280;19224;52.462;16.898;2023-07-16T05:23:10;99852.76;;;26.66;69.86
32873;BME280;19224;52.462;16.898;2023-07-16T05:25:49;99846.86;;;26.73;69.58
32873;BME280;19224;52.462;16.898;2023-07-16T05:28:20;99856.70;;;26.98;69.16
32873;BME280;19224;52.462;16.898;2023-07-16T05:31:04;99873.71;;;26.87;69.55
32873;BME280;19224;52.462;16.898;2023-07-16T05:33:34;99860.81;;;26.79;69.93
32873;BME280;19224;52.462;16.898;2023-07-16T05:36:09;99867.59;;;26.73;70.79
32873;BME280;19224;52.462;16.898;2023-07-16T05:38:38;99883.39;;;26.91;70.57
32873;BME280;19224;52.462;16.898;2023-07-16T05:41:10;99890.59;;;27.00;70.73
32873;BME280;19224;52.462;16.898;2023-07-16T05:43:41;99894.94;;;27.25;69.84
32873;BME280;19224;52.462;16.898;2023-07-16T05:46:15;99899.94;;;27.25;69.34
32873;BME280;19224;52.462;16.898;2023-07-16T05:48:50;99902.86;;;27.28;69.68
32873;BME280;19224;52.462;16.898;2023-07-16T05:51:20;99899.77;;;27.27;70.07
32873;BME280;19224;52.462;16.898;2023-07-16T05:53:54;99899.73;;;27.49;69.36
32873;BME280;19224;52.462;16.898;2023-07-16T05:56:24;99907.38;;;27.47;69.06
32873;BME280;19224;52.462;16.898;2023-07-16T05:58:55;99899.67;;;27.39;69.79
32873;BME280;19224;52.462;16.898;2023-07-16T06:01:27;99902.56;;;27.63;69.25
32873;BME280;19224;52.462;16.898;2023-07-16T06:03:59;99900.13;;;27.64;68.58
32873;BME280;19224;52.462;16.898;2023-07-16T06:06:35;99904.89;;;27.97;67.73
32873;BME280;19224;52.462;16.898;2023-07-16T06:09:03;99909.11;;;27.89;67.98
32873;BME280;19224;52.462;16.898;2023-07-16T06:11:35;99902.56;;;27.63;67.22
32873;BME280;19224;52.462;16.898;2023-07-16T06:14:06;99910.47;;;27.70;67.25
32873;BME280;19224;52.462;16.898;2023-07-16T06:16:44;99913.52;;;27.57;67.81
32873;BME280;19224;52.462;16.898;2023-07-16T06:19:15;99916.13;;;27.54;68.02
32873;BME280;19224;52.462;16.898;2023-07-16T06:21:50;99901.23;;;27.59;67.95
32873;BME280;19224;52.462;16.898;2023-07-16T06:24:20;99899.46;;;27.62;67.94
32873;BME280;19224;52.462;16.898;2023-07-16T06:26:52;99910.11;;;27.77;67.64
32873;BME280;19224;52.462;16.898;2023-07-16T06:29:25;99904.06;;;27.92;67.04
32873;BME280;19224;52.462;16.898;2023-07-16T06:31:57;99903.99;;;28.00;66.63
32873;BME280;19224;52.462;16.898;2023-07-16T06:34:31;99919.81;;;27.92;66.31
32873;BME280;19224;52.462;16.898;2023-07-16T06:37:03;99926.27;;;27.88;66.02
32873;BME280;19224;52.462;16.898;2023-07-16T06:39:38;99923.68;;;27.87;66.32
32873;BME280;19224;52.462;16.898;2023-07-16T06:42:10;99939.67;;;27.99;65.70
32873;BME280;19224;52.462;16.898;2023-07-16T06:44:41;99943.33;;;27.77;66.12
32873;BME280;19224;52.462;16.898;2023-07-16T06:47:12;99933.99;;;27.74;65.35
32873;BME280;19224;52.462;16.898;2023-07-16T06:49:42;99944.62;;;27.63;66.46
32873;BME280;19224;52.462;16.898;2023-07-16T06:52:26;99934.59;;;27.40;67.49
32873;BME280;19224;52.462;16.898;2023-07-16T06:54:58;99938.62;;;27.33;68.18
32873;BME280;19224;52.462;16.898;2023-07-16T06:57:28;99943.31;;;27.29;68.57
32873;BME280;19224;52.462;16.898;2023-07-16T06:59:58;99959.31;;;27.15;69.13
32873;BME280;19224;52.462;16.898;2023-07-16T07:02:33;99949.27;;;27.18;69.39
32873;BME280;19224;52.462;16.898;2023-07-16T07:05:04;99953.08;;;27.17;69.28
32873;BME280;19224;52.462;16.898;2023-07-16T07:07:36;99958.48;;;27.02;69.67
32873;BME280;19224;52.462;16.898;2023-07-16T07:10:07;99962.45;;;27.12;69.55
32873;BME280;19224;52.462;16.898;2023-07-16T07:12:40;99967.62;;;27.07;69.63
32873;BME280;19224;52.462;16.898;2023-07-16T07:15:10;99976.92;;;27.10;69.73
32873;BME280;19224;52.462;16.898;2023-07-16T07:17:47;99997.20;;;27.06;69.83
32873;BME280;19224;52.462;16.898;2023-07-16T07:20:24;100021.91;;;27.04;69.79
32873;BME280;19224;52.462;16.898;2023-07-16T07:23:00;100024.05;;;26.90;72.35
32873;BME280;19224;52.462;16.898;2023-07-16T07:25:32;100022.31;;;26.93;74.03
32873;BME280;19224;52.462;16.898;2023-07-16T07:28:08;99995.39;;;26.83;75.51
32873;BME280;19224;52.462;16.898;2023-07-16T07:30:39;100003.09;;;26.57;74.81
32873;BME280;19224;52.462;16.898;2023-07-16T07:33:23;99988.91;;;26.60;75.49
32873;BME280;19224;52.462;16.898;2023-07-16T07:35:57;99990.17;;;26.92;73.91
32873;BME280;19224;52.462;16.898;2023-07-16T07:38:29;99981.11;;;27.06;73.20
32873;BME280;19224;52.462;16.898;2023-07-16T07:40:59;99976.28;;;27.04;72.70
32873;BME280;19224;52.462;16.898;2023-07-16T07:43:33;100003.40;;;27.04;72.23
32873;BME280;19224;52.462;16.898;2023-07-16T07:46:05;100001.48;;;27.17;71.70
32873;BME280;19224;52.462;16.898;2023-07-16T07:48:40;99990.92;;;27.20;71.61
32873;BME280;19224;52.462;16.898;2023-07-16T07:51:12;99988.92;;;27.33;71.22
32873;BME280;19224;52.462;16.898;2023-07-16T07:53:47;99993.66;;;27.50;70.71
32873;BME280;19224;52.462;16.898;2023-07-16T07:56:18;99991.56;;;27.56;70.24
32873;BME280;19224;52.462;16.898;2023-07-16T07:58:49;100008.84;;;27.58;70.47
32873;BME280;19224;52.462;16.898;2023-07-16T08:01:19;100021.67;;;27.51;70.16
32873;BME280;19224;52.462;16.898;2023-07-16T08:03:55;100031.02;;;27.50;70.12
32873;BME280;19224;52.462;16.898;2023-07-16T08:06:23;100043.67;;;27.07;72.49
32873;BME280;19224;52.462;16.898;2023-07-16T08:08:56;100048.50;;;27.09;72.38
32873;BME280;19224;52.462;16.898;2023-07-16T08:11:31;100052.72;;;26.93;73.39
32873;BME280;19224;52.462;16.898;2023-07-16T08:14:02;100067.58;;;27.00;73.67
32873;BME280;19224;52.462;16.898;2023-07-16T08:16:32;100077.98;;;26.82;75.61
32873;BME280;19224;52.462;16.898;2023-07-16T08:19:02;100075.05;;;26.71;75.80
32873;BME280;19224;52.462;16.898;2023-07-16T08:21:37;100097.37;;;26.62;76.69
32873;BME280;19224;52.462;16.898;2023-07-16T08:24:09;100107.21;;;26.20;80.76
32873;BME280;19224;52.462;16.898;2023-07-16T08:26:40;100121.34;;;26.01;82.61
32873;BME280;19224;52.462;16.898;2023-07-16T08:29:13;100114.58;;;25.88;85.04
32873;BME280;19224;52.462;16.898;2023-07-16T08:31:43;100113.75;;;25.95;85.79
32873;BME280;19224;52.462;16.898;2023-07-16T08:34:15;100117.15;;;25.85;87.23
32873;BME280;19224;52.462;16.898;2023-07-16T08:36:47;100115.45;;;25.88;87.79
32873;BME280;19224;52.462;16.898;2023-07-16T08:39:28;100112.64;;;25.76;88.82
32873;BME280;19224;52.462;16.898;2023-07-16T08:41:55;100115.91;;;25.68;88.64
32873;BME280;19224;52.462;16.898;2023-07-16T08:44:29;100110.81;;;25.89;88.38
32873;BME280;19224;52.462;16.898;2023-07-16T08:47:00;100103.16;;;25.83;88.56
32873;BME280;19224;52.462;16.898;2023-07-16T08:49:32;100098.31;;;25.73;89.20
32873;BME280;19224;52.462;16.898;2023-07-16T08:52:05;100097.41;;;25.60;90.19
32873;BME280;19224;52.462;16.898;2023-07-16T08:54:41;100105.45;;;25.38;91.72
32873;BME280;19224;52.462;16.898;2023-07-16T08:57:16;100099.74;;;25.31;93.34
32873;BME280;19224;52.462;16.898;2023-07-16T08:59:51;100091.00;;;25.10;93.64
32873;BME280;19224;52.462;16.898;2023-07-16T09:02:22;100090.23;;;25.22;95.10
32873;BME280;19224;52.462;16.898;2023-07-16T09:04:52;100087.70;;;25.03;95.76
32873;BME280;19224;52.462;16.898;2023-07-16T09:07:27;100087.64;;;24.91;98.09
32873;BME280;19224;52.462;16.898;2023-07-16T09:10:01;100075.44;;;25.01;97.91
32873;BME280;19224;52.462;16.898;2023-07-16T09:12:33;100068.17;;;25.22;96.82
32873;BME280;19224;52.462;16.898;2023-07-16T09:15:07;100067.64;;;25.22;97.61
32873;BME280;19224;52.462;16.898;2023-07-16T09:17:42;100067.87;;;25.33;97.61
32873;BME280;19224;52.462;16.898;2023-07-16T09:20:14;100084.92;;;25.36;98.62
32873;BME280;19224;52.462;16.898;2023-07-16T09:22:47;100105.33;;;25.18;100.00
32873;BME280;19224;52.462;16.898;2023-07-16T09:25:22;100109.80;;;25.15;100.00
32873;BME280;19224;52.462;16.898;2023-07-16T09:27:53;100108.37;;;25.36;100.00
32873;BME280;19224;52.462;16.898;2023-07-16T09:30:25;100079.84;;;25.69;99.89
32873;BME280;19224;52.462;16.898;2023-07-16T09:33:20;100098.06;;;26.00;99.48
32873;BME280;19224;52.462;16.898;2023-07-16T09:35:57;100095.63;;;26.09;100.00
32873;BME280;19224;52.462;16.898;2023-07-16T09:38:28;100083.21;;;26.45;97.03
32873;BME280;19224;52.462;16.898;2023-07-16T09:41:00;100073.88;;;26.62;96.56
32873;BME280;19224;52.462;16.898;2023-07-16T09:43:32;100085.06;;;26.80;96.26
32873;BME280;19224;52.462;16.898;2023-07-16T09:46:03;100075.31;;;27.12;93.97
32873;BME280;19224;52.462;16.898;2023-07-16T09:48:35;100079.83;;;27.43;91.94
32873;BME280;19224;52.462;16.898;2023-07-16T09:51:11;100077.77;;;27.46;91.30
32873;BME280;19224;52.462;16.898;2023-07-16T09:53:44;100093.12;;;27.52;89.14
32873;BME280;19224;52.462;16.898;2023-07-16T09:56:17;100090.45;;;27.32;88.43
32873;BME280;19224;52.462;16.898;2023-07-16T09:58:52;100078.70;;;27.30;88.63
32873;BME280;19224;52.462;16.898;2023-07-16T10:01:30;100081.92;;;27.42;88.81
32873;BME280;19224;52.462;16.898;2023-07-16T10:04:20;100084.37;;;27.37;87.42
32873;BME280;19224;52.462;16.898;2023-07-16T10:06:58;100082.52;;;27.59;86.52
32873;BME280;19224;52.462;16.898;2023-07-16T10:09:39;100079.45;;;27.50;85.79
32873;BME280;19224;52.462;16.898;2023-07-16T10:12:15;100082.45;;;27.37;86.88
32873;BME280;19224;52.462;16.898;2023-07-16T10:15:00;100079.61;;;27.19;86.24
32873;BME280;19224;52.462;16.898;2023-07-16T10:17:29;100083.95;;;27.13;87.54
32873;BME280;19224;52.462;16.898;2023-07-16T10:20:09;100083.41;;;27.10;87.44
32873;BME280;19224;52.462;16.898;2023-07-16T10:22:50;100086.89;;;27.16;86.12
32873;BME280;19224;52.462;16.898;2023-07-16T10:25:28;100083.77;;;27.23;84.63
32873;BME280;19224;52.462;16.898;2023-07-16T10:28:01;100093.73;;;27.36;84.08
32873;BME280;19224;52.462;16.898;2023-07-16T10:30:34;100099.26;;;27.36;84.99
32873;BME280;19224;52.462;16.898;2023-07-16T10:33:16;100091.27;;;27.45;83.86
32873;BME280;19224;52.462;16.898;2023-07-16T10:35:47;100099.88;;;27.49;83.01
32873;BME280;19224;52.462;16.898;2023-07-16T10:38:22;100098.80;;;27.58;82.61
32873;BME280;19224;52.462;16.898;2023-07-16T10:40:55;100101.43;;;27.52;81.65
32873;BME280;19224;52.462;16.898;2023-07-16T10:43:28;100104.27;;;27.70;82.16
32873;BME280;19224;52.462;16.898;2023-07-16T10:46:05;100100.10;;;27.78;81.83
32873;BME280;19224;52.462;16.898;2023-07-16T10:48:36;100104.25;;;27.78;81.77
32873;BME280;19224;52.462;16.898;2023-07-16T10:51:07;100106.66;;;28.26;77.64
32873;BME280;19224;52.462;16.898;2023-07-16T10:53:41;100093.61;;;28.90;73.08
32873;BME280;19224;52.462;16.898;2023-07-16T10:56:11;100105.22;;;29.66;68.55
32873;BME280;19224;52.462;16.898;2023-07-16T10:58:44;100108.27;;;30.59;63.48
32873;BME280;19224;52.462;16.898;2023-07-16T11:01:17;100099.69;;;30.92;62.34
32873;BME280;19224;52.462;16.898;2023-07-16T11:03:47;100101.89;;;31.54;60.21
32873;BME280;19224;52.462;16.898;2023-07-16T11:06:24;100101.86;;;31.47;60.92
32873;BME280;19224;52.462;16.898;2023-07-16T11:09:05;100102.38;;;32.11;57.06
32873;BME280;19224;52.462;16.898;2023-07-16T11:11:33;100102.56;;;32.33;54.94
32873;BME280;19224;52.462;16.898;2023-07-16T11:14:07;100101.48;;;32.04;55.54
32873;BME280;19224;52.462;16.898;2023-07-16T11:16:39;100098.77;;;32.23;55.05
32873;BME280;19224;52.462;16.898;2023-07-16T11:19:14;100093.33;;;32.45;55.63
32873;BME280;19224;52.462;16.898;2023-07-16T11:21:47;100097.52;;;32.65;52.87
32873;BME280;19224;52.462;16.898;2023-07-16T11:24:17;100102.80;;;31.61;53.96
32873;BME280;19224;52.462;16.898;2023-07-16T11:26:55;100093.45;;;31.34;54.88
32873;BME280;19224;52.462;16.898;2023-07-16T11:29:36;100091.70;;;31.44;55.36
32873;BME280;19224;52.462;16.898;2023-07-16T11:32:07;100098.14;;;31.51;54.94
32873;BME280;19224;52.462;16.898;2023-07-16T11:34:53;100096.20;;;31.45;55.92
32873;BME280;19224;52.462;16.898;2023-07-16T11:37:29;100093.27;;;31.66;55.61
32873;BME280;19224;52.462;16.898;2023-07-16T11:40:06;100095.38;;;31.68;54.73
32873;BME280;19224;52.462;16.898;2023-07-16T11:42:41;100104.87;;;31.46;53.22
32873;BME280;19224;52.462;16.898;2023-07-16T11:45:23;100092.19;;;31.37;54.07
32873;BME280;19224;52.462;16.898;2023-07-16T11:47:56;100100.28;;;31.49;53.96
32873;BME280;19224;52.462;16.898;2023-07-16T11:50:31;100088.74;;;31.58;54.37
32873;BME280;19224;52.462;16.898;2023-07-16T11:53:05;100096.42;;;31.50;54.74
32873;BME280;19224;52.462;16.898;2023-07-16T11:55:38;100105.69;;;31.40;54.46
32873;BME280;19224;52.462;16.898;2023-07-16T11:58:08;100106.76;;;31.39;54.56
32873;BME280;19224;52.462;16.898;2023-07-16T12:00:39;100105.93;;;31.11;55.01
32873;BME280;19224;52.462;16.898;2023-07-16T12:03:12;100095.92;;;30.89;56.24
32873;BME280;19224;52.462;16.898;2023-07-16T12:05:44;100097.31;;;30.89;55.83
32873;BME280;19224;52.462;16.898;2023-07-16T12:08:14;100090.75;;;31.13;55.66
32873;BME280;19224;52.462;16.898;2023-07-16T12:10:46;100093.88;;;31.31;54.80
32873;BME280;19224;52.462;16.898;2023-07-16T12:13:17;100097.92;;;31.29;54.48
32873;BME280;19224;52.462;16.898;2023-07-16T12:15:52;100093.16;;;31.40;53.94
32873;BME280;19224;52.462;16.898;2023-07-16T12:18:26;100097.83;;;30.88;54.19
32873;BME280;19224;52.462;16.898;2023-07-16T12:21:00;100097.73;;;31.03;53.79
32873;BME280;19224;52.462;16.898;2023-07-16T12:23:30;100103.86;;;30.92;54.53
32873;BME280;19224;52.462;16.898;2023-07-16T12:26:01;100102.84;;;30.51;52.73
32873;BME280;19224;52.462;16.898;2023-07-16T12:28:33;100098.94;;;30.45;50.95
32873;BME280;19224;52.462;16.898;2023-07-16T12:31:05;100097.36;;;30.68;49.87
32873;BME280;19224;52.462;16.898;2023-07-16T12:33:38;100114.20;;;30.77;50.72
32873;BME280;19224;52.462;16.898;2023-07-16T12:36:10;100106.89;;;30.38;51.31
32873;BME280;19224;52.462;16.898;2023-07-16T12:38:42;100113.44;;;30.41;51.17
32873;BME280;19224;52.462;16.898;2023-07-16T12:41:17;100094.64;;;30.64;50.13
32873;BME280;19224;52.462;16.898;2023-07-16T12:43:48;100094.30;;;30.42;50.52
32873;BME280;19224;52.462;16.898;2023-07-16T12:46:18;100102.56;;;30.56;49.35
32873;BME280;19224;52.462;16.898;2023-07-16T12:48:51;100092.04;;;30.73;49.54
32873;BME280;19224;52.462;16.898;2023-07-16T12:51:22;100097.47;;;30.70;49.32
32873;BME280;19224;52.462;16.898;2023-07-16T12:53:57;100096.11;;;30.49;50.57
32873;BME280;19224;52.462;16.898;2023-07-16T12:56:27;100107.22;;;30.39;50.99
32873;BME280;19224;52.462;16.898;2023-07-16T12:59:00;100102.55;;;30.04;51.23
32873;BME280;19224;52.462;16.898;2023-07-16T13:01:32;100107.15;;;30.53;50.68
32873;BME280;19224;52.462;16.898;2023-07-16T13:04:02;100101.91;;;30.75;49.57
32873;BME280;19224;52.462;16.898;2023-07-16T13:06:32;100097.92;;;30.84;48.84
32873;BME280;19224;52.462;16.898;2023-07-16T13:09:10;100087.07;;;31.23;48.56
32873;BME280;19224;52.462;16.898;2023-07-16T13:11:45;100090.02;;;31.49;46.22
32873;BME280;19224;52.462;16.898;2023-07-16T13:14:16;100089.84;;;31.81;45.68
32873;BME280;19224;52.462;16.898;2023-07-16T13:16:48;100085.53;;;31.78;44.45
32873;BME280;19224;52.462;16.898;2023-07-16T13:19:23;100085.71;;;32.00;42.94
32873;BME280;19224;52.462;16.898;2023-07-16T13:21:53;100077.49;;;32.16;43.01
32873;BME280;19224;52.462;16.898;2023-07-16T13:24:25;100081.37;;;31.85;41.72